Time;durP1;ratioP1;P1;durP2;ratioP2;P2;SDS_P1;SDS_P2;PMS_P1;PMS_P2;Temp;Humidity;BMP_temperature;BMP_pressure;BME280_temperature;BME280_humidity;BME280_pressure;Samples;Min_cycle;Max_cycle;Signal;HPM_P1;HPM_P2
2022/10/16 00:01:22;;;;;;;10.70;3.30;;;12.50;99.90;;;;;;6273730;22;20019;-84
2022/10/16 00:03:49;;;;;;;9.35;2.80;;;12.60;99.90;;;;;;6248083;22;20465;-84
2022/10/16 00:06:17;;;;;;;11.07;2.83;;;12.50;99.90;;;;;;6248663;22;20082;-84
2022/10/16 00:08:43;;;;;;;13.73;4.10;;;12.50;99.90;;;;;;6276836;22;20452;-84
2022/10/16 00:11:17;;;;;;;10.15;2.70;;;13.30;99.90;;;;;;6277071;22;20009;-84
2022/10/16 00:13:44;;;;;;;12.63;3.47;;;12.50;99.90;;;;;;6250349;22;20340;-84
2022/10/16 00:16:12;;;;;;;10.05;3.17;;;12.50;99.90;;;;;;6249026;22;20027;-84
2022/10/16 00:18:38;;;;;;;10.50;2.92;;;12.50;99.90;;;;;;6250532;22;20065;-83
2022/10/16 00:21:08;;;;;;;10.93;3.25;;;12.60;99.90;;;;;;6250282;22;20452;-84
2022/10/16 00:23:34;;;;;;;11.52;3.60;;;12.50;99.90;;;;;;6249432;22;20440;-84
2022/10/16 00:26:02;;;;;;;10.25;3.00;;;12.50;99.90;;;;;;6250282;22;20039;-84
2022/10/16 00:28:29;;;;;;;12.40;3.80;;;12.50;99.90;;;;;;6250013;22;20012;-84
2022/10/16 00:30:55;;;;;;;12.63;3.30;;;12.50;99.90;;;;;;6249080;22;20098;-84
2022/10/16 00:33:21;;;;;;;10.23;3.38;;;12.50;99.90;;;;;;6277299;22;20070;-84
2022/10/16 00:35:47;;;;;;;8.38;2.60;;;12.50;99.90;;;;;;6249873;22;20019;-84
2022/10/16 00:38:12;;;;;;;13.25;3.28;;;12.50;99.90;;;;;;6276392;22;20050;-84
2022/10/16 00:40:38;;;;;;;10.98;3.72;;;12.50;99.90;;;;;;6250291;22;20047;-84
2022/10/16 00:43:14;;;;;;;7.72;2.50;;;12.50;99.90;;;;;;6243920;23;20034;-84
2022/10/16 00:45:40;;;;;;;10.63;3.05;;;12.50;99.90;;;;;;6245415;23;20017;-84
2022/10/16 00:48:10;;;;;;;14.05;4.43;;;12.50;99.90;;;;;;6246551;22;20103;-84
2022/10/16 00:50:37;;;;;;;10.68;3.10;;;12.40;99.90;;;;;;6246179;22;20008;-84
2022/10/16 00:53:03;;;;;;;11.45;3.25;;;12.50;99.90;;;;;;6245052;23;20012;-84
2022/10/16 00:55:30;;;;;;;11.48;3.22;;;12.40;99.90;;;;;;6246423;22;20058;-84
2022/10/16 00:57:57;;;;;;;10.75;3.20;;;12.40;99.90;;;;;;6243974;23;20448;-84
2022/10/16 01:00:26;;;;;;;14.63;5.03;;;13.40;99.90;;;;;;6246017;22;20456;-84
2022/10/16 01:02:54;;;;;;;9.40;3.13;;;12.40;99.90;;;;;;6246365;22;20456;-84
2022/10/16 01:05:26;;;;;;;12.30;2.95;;;12.40;99.90;;;;;;6244472;22;20019;-84
2022/10/16 01:08:10;;;;;;;11.50;2.97;;;13.30;99.90;;;;;;6246961;22;20012;-84
2022/10/16 01:10:59;;;;;;;10.95;2.92;;;12.40;99.90;;;;;;6245003;23;20023;-84
2022/10/16 01:13:32;;;;;;;11.32;3.92;;;12.40;99.90;;;;;;6246413;23;20515;-85
2022/10/16 01:16:15;;;;;;;10.18;3.00;;;12.40;99.90;;;;;;6244755;23;20017;-84
2022/10/16 01:18:46;;;;;;;10.73;3.30;;;12.40;99.90;;;;;;6243471;23;20052;-84
2022/10/16 01:21:38;;;;;;;9.43;2.97;;;12.30;99.90;;;;;;6244511;23;20016;-84
2022/10/16 01:24:27;;;;;;;10.15;2.80;;;12.30;99.90;;;;;;6244882;23;20078;-83
2022/10/16 01:27:20;;;;;;;8.95;3.05;;;12.40;99.90;;;;;;6243943;23;20321;-84
2022/10/16 01:30:23;;;;;;;12.00;3.22;;;12.40;99.90;;;;;;6219206;23;20024;-84
2022/10/16 01:33:12;;;;;;;8.70;2.88;;;12.30;99.90;;;;;;6182756;22;20025;-84
2022/10/16 01:35:53;;;;;;;9.25;3.00;;;12.30;99.90;;;;;;6246552;22;20027;-84
2022/10/16 01:38:25;;;;;;;8.95;3.25;;;12.30;99.90;;;;;;6244046;23;20012;-84
2022/10/16 01:41:12;;;;;;;9.35;3.25;;;12.30;99.90;;;;;;6230201;22;20123;-84
2022/10/16 01:43:44;;;;;;;8.93;3.10;;;12.30;99.90;;;;;;6244400;23;20020;-83
2022/10/16 01:46:21;;;;;;;10.52;3.42;;;12.50;99.90;;;;;;6248495;22;20016;-84
2022/10/16 01:48:48;;;;;;;11.90;3.45;;;13.60;99.90;;;;;;6276288;22;20016;-83
2022/10/16 01:51:16;;;;;;;8.20;3.00;;;12.50;99.90;;;;;;6276376;22;20339;-84
2022/10/16 01:53:47;;;;;;;8.95;2.90;;;12.20;99.90;;;;;;6248396;22;20336;-84
2022/10/16 01:56:15;;;;;;;11.05;3.00;;;12.20;99.90;;;;;;6248863;22;20012;-84
2022/10/16 01:59:06;;;;;;;9.55;3.20;;;12.20;99.90;;;;;;6249262;22;20015;-84
2022/10/16 02:01:36;;;;;;;8.30;3.03;;;12.10;99.90;;;;;;6222254;22;20024;-84
2022/10/16 02:04:11;;;;;;;9.90;3.13;;;13.30;99.90;;;;;;6276883;22;20015;-84
2022/10/16 02:06:37;;;;;;;8.63;3.10;;;12.20;99.90;;;;;;6249105;22;20016;-84
2022/10/16 02:09:03;;;;;;;10.27;3.17;;;12.10;99.90;;;;;;6275476;22;20011;-84
2022/10/16 02:11:29;;;;;;;9.50;3.10;;;12.10;99.90;;;;;;6248975;22;20065;-84
2022/10/16 02:14:01;;;;;;;9.93;3.00;;;12.10;99.90;;;;;;6276605;22;20386;-84
2022/10/16 02:16:36;;;;;;;9.18;2.97;;;12.10;99.90;;;;;;6248635;22;20030;-84
2022/10/16 02:19:02;;;;;;;9.48;2.60;;;12.10;99.90;;;;;;6281104;22;20038;-84
2022/10/16 02:21:39;;;;;;;9.82;3.15;;;12.20;99.90;;;;;;6249994;22;20016;-83
2022/10/16 02:24:25;;;;;;;7.88;2.83;;;12.20;99.90;;;;;;6276901;22;20102;-84
2022/10/16 02:26:59;;;;;;;8.00;2.75;;;12.20;99.90;;;;;;6249570;22;20099;-83
2022/10/16 02:29:26;;;;;;;9.13;2.75;;;12.20;99.90;;;;;;6275613;22;20020;-84
2022/10/16 02:32:04;;;;;;;9.35;3.13;;;12.20;99.90;;;;;;6249226;22;20019;-84
2022/10/16 02:34:32;;;;;;;9.43;2.80;;;12.20;99.90;;;;;;6248611;22;20011;-84
2022/10/16 02:37:00;;;;;;;8.00;2.80;;;12.20;99.90;;;;;;6275784;22;20069;-84
2022/10/16 02:39:28;;;;;;;9.35;3.00;;;12.30;99.90;;;;;;6248928;22;20026;-84
2022/10/16 02:41:54;;;;;;;9.40;3.00;;;12.20;99.90;;;;;;6276412;22;20078;-83
2022/10/16 02:44:19;;;;;;;9.35;2.83;;;12.50;99.90;;;;;;6248019;22;20039;-84
2022/10/16 02:46:45;;;;;;;7.55;2.70;;;12.20;99.90;;;;;;6276365;22;20050;-84
2022/10/16 02:49:10;;;;;;;9.35;2.80;;;12.30;99.90;;;;;;6248741;22;20027;-84
2022/10/16 02:51:36;;;;;;;7.45;2.90;;;12.30;99.90;;;;;;6248064;22;20016;-84
2022/10/16 02:54:03;;;;;;;9.52;2.88;;;12.30;99.90;;;;;;6248934;22;20042;-84
2022/10/16 02:56:29;;;;;;;9.85;3.13;;;12.30;99.90;;;;;;6248489;22;20085;-84
2022/10/16 02:58:55;;;;;;;8.80;2.97;;;12.40;99.90;;;;;;6247987;22;20051;-84
2022/10/16 03:01:21;;;;;;;8.05;2.80;;;12.40;99.90;;;;;;6275076;22;20023;-84
2022/10/16 03:06:15;;;;;;;10.15;2.83;;;12.50;99.90;;;;;;6214994;23;20047;-84
2022/10/16 03:08:40;;;;;;;9.68;2.40;;;12.50;99.90;;;;;;6215193;23;20017;-84
2022/10/16 03:11:06;;;;;;;8.50;3.15;;;12.50;99.90;;;;;;6214307;23;20024;-84
2022/10/16 03:13:31;;;;;;;9.93;2.80;;;12.50;99.90;;;;;;6214877;23;20055;-84
2022/10/16 03:15:57;;;;;;;9.10;2.67;;;12.60;99.90;;;;;;6188059;23;20013;-84
2022/10/16 03:18:22;;;;;;;9.23;2.95;;;12.60;99.90;;;;;;6186885;23;20020;-84
2022/10/16 03:20:48;;;;;;;8.43;2.90;;;12.60;99.90;;;;;;6188466;23;20040;-84
2022/10/16 03:23:14;;;;;;;9.63;2.85;;;12.70;99.90;;;;;;6215204;23;20017;-84
2022/10/16 03:25:39;;;;;;;9.13;2.75;;;12.60;99.90;;;;;;6187554;23;20028;-84
2022/10/16 03:28:05;;;;;;;9.80;3.60;;;12.70;99.90;;;;;;6215366;23;20017;-84
2022/10/16 03:30:30;;;;;;;11.50;3.20;;;12.70;99.90;;;;;;6214321;23;20087;-84
2022/10/16 03:32:56;;;;;;;11.77;2.80;;;12.70;99.90;;;;;;6187683;23;20016;-84
2022/10/16 03:35:23;;;;;;;8.05;3.05;;;12.70;99.90;;;;;;6214686;23;20024;-84
2022/10/16 03:37:49;;;;;;;8.65;2.90;;;12.90;99.90;;;;;;6188360;23;20013;-84
2022/10/16 03:40:14;;;;;;;12.23;3.80;;;12.70;99.90;;;;;;6187186;23;20059;-84
2022/10/16 03:42:41;;;;;;;10.18;3.70;;;13.80;99.90;;;;;;6190255;23;20023;-84
2022/10/16 03:45:07;;;;;;;10.38;3.60;;;12.80;99.90;;;;;;6189989;23;20099;-84
2022/10/16 03:47:33;;;;;;;11.23;3.33;;;12.90;99.90;;;;;;6189434;23;20086;-84
2022/10/16 03:49:59;;;;;;;7.53;3.17;;;12.90;99.90;;;;;;6217136;23;20020;-84
2022/10/16 03:52:25;;;;;;;10.10;3.75;;;12.90;99.90;;;;;;6216855;23;20091;-84
2022/10/16 03:54:51;;;;;;;9.05;3.10;;;12.90;99.90;;;;;;6216115;23;20017;-84
2022/10/16 03:57:17;;;;;;;9.07;3.40;;;12.80;99.90;;;;;;6189878;23;20019;-84
2022/10/16 03:59:43;;;;;;;9.23;3.30;;;14.00;99.90;;;;;;6190018;23;20017;-84
2022/10/16 04:02:09;;;;;;;9.63;3.28;;;12.90;99.90;;;;;;6215027;23;20040;-84
2022/10/16 04:04:35;;;;;;;9.57;3.20;;;13.10;99.90;;;;;;6215457;23;20016;-84
2022/10/16 04:07:01;;;;;;;8.77;3.25;;;12.80;99.90;;;;;;6188782;23;20151;-84
2022/10/16 04:09:26;;;;;;;11.65;3.53;;;12.80;99.90;;;;;;6189609;23;20354;-84
2022/10/16 04:11:52;;;;;;;8.23;3.38;;;12.80;99.90;;;;;;6216762;23;20070;-84
2022/10/16 04:14:18;;;;;;;10.00;3.60;;;12.80;99.90;;;;;;6215020;23;20016;-83
2022/10/16 04:16:44;;;;;;;10.10;3.33;;;12.80;99.90;;;;;;6189964;23;20078;-84
2022/10/16 04:19:10;;;;;;;9.25;3.60;;;12.70;99.90;;;;;;6189696;23;20017;-84
2022/10/16 04:21:36;;;;;;;9.10;3.78;;;12.70;99.90;;;;;;6189331;23;20020;-84
2022/10/16 04:24:02;;;;;;;8.45;3.30;;;12.70;99.90;;;;;;6216869;23;20449;-84
2022/10/16 04:26:28;;;;;;;10.60;3.70;;;12.70;99.90;;;;;;6189467;23;20017;-84
2022/10/16 04:28:53;;;;;;;10.23;3.60;;;12.70;99.90;;;;;;6215590;23;20534;-84
2022/10/16 04:31:19;;;;;;;12.35;4.00;;;12.70;99.90;;;;;;6216864;23;20020;-84
2022/10/16 04:33:45;;;;;;;9.23;3.95;;;12.60;99.90;;;;;;6189759;23;20020;-84
2022/10/16 04:36:11;;;;;;;9.43;3.42;;;12.70;99.90;;;;;;6214677;23;20040;-84
2022/10/16 04:38:37;;;;;;;10.05;3.92;;;12.70;99.90;;;;;;6189442;23;20024;-84
2022/10/16 04:41:03;;;;;;;9.48;3.60;;;13.40;99.90;;;;;;6189711;23;20468;-84
2022/10/16 04:43:29;;;;;;;9.55;3.78;;;12.60;99.90;;;;;;6188617;23;20031;-84
2022/10/16 04:45:56;;;;;;;9.68;3.97;;;12.60;99.90;;;;;;6216613;23;20009;-84
2022/10/16 04:48:21;;;;;;;10.88;3.97;;;12.60;99.90;;;;;;6216154;23;20016;-83
2022/10/16 04:50:47;;;;;;;10.80;4.07;;;12.60;99.90;;;;;;6189397;23;20012;-84
2022/10/16 04:53:13;;;;;;;9.52;3.90;;;12.60;99.90;;;;;;6215902;23;20048;-83
2022/10/16 04:55:38;;;;;;;9.85;4.22;;;12.70;99.90;;;;;;6216584;23;20012;-84
2022/10/16 04:58:04;;;;;;;11.20;4.10;;;12.70;99.90;;;;;;6188770;23;20012;-84
2022/10/16 05:00:30;;;;;;;9.50;4.07;;;12.60;99.90;;;;;;6216190;23;20013;-84
2022/10/16 05:02:56;;;;;;;11.90;4.28;;;12.70;99.90;;;;;;6216666;23;20020;-84
2022/10/16 05:05:22;;;;;;;9.85;3.97;;;12.70;99.90;;;;;;6187681;23;20024;-84
2022/10/16 05:07:49;;;;;;;9.88;4.20;;;12.70;99.90;;;;;;6189524;23;20008;-84
2022/10/16 05:10:15;;;;;;;10.35;4.43;;;12.70;99.90;;;;;;6215606;23;20012;-84
2022/10/16 05:12:40;;;;;;;11.27;4.68;;;12.70;99.90;;;;;;6189123;23;20016;-84
2022/10/16 05:15:07;;;;;;;10.25;4.40;;;12.70;99.90;;;;;;6189136;23;20024;-84
2022/10/16 05:17:32;;;;;;;11.00;4.50;;;12.70;99.90;;;;;;6188704;23;20013;-84
2022/10/16 05:19:58;;;;;;;9.07;3.97;;;12.60;99.90;;;;;;6189277;23;20036;-84
2022/10/16 05:22:23;;;;;;;9.80;3.50;;;12.60;99.90;;;;;;6215885;23;20059;-84
2022/10/16 05:24:49;;;;;;;8.75;3.65;;;14.00;99.90;;;;;;6188453;23;20027;-84
2022/10/16 05:27:18;;;;;;;8.82;3.58;;;12.60;99.90;;;;;;6189177;23;20103;-84
2022/10/16 05:29:46;;;;;;;12.30;3.40;;;12.50;99.90;;;;;;6189659;23;20055;-84
2022/10/16 05:32:12;;;;;;;10.07;3.10;;;12.60;99.90;;;;;;6214958;23;20027;-84
2022/10/16 05:34:38;;;;;;;8.20;3.50;;;12.50;99.90;;;;;;6189249;23;20453;-84
2022/10/16 05:37:04;;;;;;;10.15;3.25;;;12.50;99.90;;;;;;6216600;23;20013;-84
2022/10/16 05:39:30;;;;;;;8.90;3.40;;;12.40;99.90;;;;;;6206315;22;20016;-83
2022/10/16 05:41:55;;;;;;;11.00;3.60;;;12.40;99.90;;;;;;6276826;22;20086;-84
2022/10/16 05:44:21;;;;;;;8.60;3.47;;;12.30;99.90;;;;;;6248556;22;20046;-84
2022/10/16 05:46:47;;;;;;;11.07;3.35;;;12.30;99.90;;;;;;6248562;22;20015;-84
2022/10/16 05:49:13;;;;;;;23.30;5.53;;;12.30;99.90;;;;;;6248818;22;20018;-84
2022/10/16 05:51:39;;;;;;;7.85;2.85;;;12.30;99.90;;;;;;6276804;22;20086;-84
2022/10/16 05:54:04;;;;;;;8.85;3.40;;;12.30;99.90;;;;;;6275790;22;20110;-84
2022/10/16 05:56:30;;;;;;;10.45;3.13;;;12.30;99.90;;;;;;6276675;22;20357;-84
2022/10/16 05:58:56;;;;;;;13.18;3.28;;;12.30;99.90;;;;;;6250414;22;20008;-84
2022/10/16 06:01:23;;;;;;;11.15;3.30;;;12.30;99.90;;;;;;6249030;22;20818;-83
2022/10/16 06:03:50;;;;;;;9.23;3.20;;;12.40;99.90;;;;;;6277186;22;20015;-83
2022/10/16 06:06:19;;;;;;;9.02;3.10;;;12.80;99.90;;;;;;6249730;22;20019;-83
2022/10/16 06:08:46;;;;;;;10.70;3.03;;;12.40;99.90;;;;;;6250716;22;20077;-84
2022/10/16 06:11:15;;;;;;;9.18;2.85;;;13.00;99.90;;;;;;6253989;22;20073;-84
2022/10/16 06:13:42;;;;;;;9.80;3.30;;;12.40;99.90;;;;;;6252477;22;20466;-83
2022/10/16 06:16:09;;;;;;;10.10;3.08;;;12.40;99.90;;;;;;6276664;22;20023;-83
2022/10/16 06:18:35;;;;;;;10.70;3.03;;;12.40;99.90;;;;;;6249457;22;20054;-83
2022/10/16 06:21:11;;;;;;;8.93;3.10;;;12.40;99.90;;;;;;6248441;22;20015;-84
2022/10/16 06:23:37;;;;;;;10.07;3.13;;;12.40;99.90;;;;;;6249221;22;20440;-84
2022/10/16 06:26:10;;;;;;;7.88;2.60;;;12.50;99.90;;;;;;6249205;22;20035;-83
2022/10/16 06:28:37;;;;;;;8.85;2.95;;;12.50;99.90;;;;;;6276177;22;20008;-84
2022/10/16 06:31:04;;;;;;;9.95;3.00;;;12.50;99.90;;;;;;6277540;22;20015;-83
2022/10/16 06:33:30;;;;;;;11.77;3.25;;;12.50;99.90;;;;;;6275614;22;20018;-84
2022/10/16 06:36:22;;;;;;;8.48;2.92;;;13.60;99.90;;;;;;6276183;22;20238;-84
2022/10/16 06:38:49;;;;;;;8.63;3.08;;;12.50;99.90;;;;;;6244587;22;20016;-83
2022/10/16 06:41:17;;;;;;;7.50;2.90;;;12.50;99.90;;;;;;6276289;22;20029;-84
2022/10/16 06:43:46;;;;;;;8.40;2.88;;;12.50;99.90;;;;;;6276598;22;20086;-84
2022/10/16 06:46:14;;;;;;;10.88;3.13;;;12.50;99.90;;;;;;6276500;22;20015;-81
2022/10/16 06:48:40;;;;;;;9.20;3.20;;;12.60;99.90;;;;;;6276293;22;20015;-81
2022/10/16 06:51:15;;;;;;;8.75;3.10;;;13.10;99.90;;;;;;6275224;22;20073;-81
2022/10/16 06:53:48;;;;;;;7.80;2.90;;;12.60;99.90;;;;;;6232627;22;20027;-80
2022/10/16 06:56:23;;;;;;;8.20;2.60;;;13.50;99.90;;;;;;6274880;22;20047;-81
2022/10/16 06:58:49;;;;;;;8.65;2.92;;;12.50;99.90;;;;;;6248823;22;20023;-81
2022/10/16 07:01:16;;;;;;;8.30;2.83;;;12.70;99.90;;;;;;6248209;22;20024;-80
2022/10/16 07:03:43;;;;;;;8.52;3.17;;;12.70;99.90;;;;;;6247915;22;20110;-81
2022/10/16 07:06:11;;;;;;;8.05;2.72;;;12.80;99.90;;;;;;6248748;22;20012;-81
2022/10/16 07:08:41;;;;;;;8.63;2.92;;;12.80;99.90;;;;;;6248730;22;20464;-82
2022/10/16 07:11:13;;;;;;;8.60;2.65;;;12.80;99.90;;;;;;6274735;22;20017;-80
2022/10/16 07:13:41;;;;;;;9.70;3.63;;;12.90;99.90;;;;;;6276032;22;20027;-81
2022/10/16 07:16:07;;;;;;;9.35;2.78;;;13.50;99.90;;;;;;6248240;22;20068;-79
2022/10/16 07:18:33;;;;;;;9.18;3.13;;;13.00;99.90;;;;;;6248139;22;20082;-81
2022/10/16 07:21:06;;;;;;;7.60;2.60;;;13.00;99.90;;;;;;6248563;22;20077;-80
2022/10/16 07:23:32;;;;;;;8.88;2.67;;;13.10;99.90;;;;;;6248836;22;20015;-81
2022/10/16 07:25:58;;;;;;;8.40;2.90;;;14.00;99.90;;;;;;6274808;22;20451;-80
2022/10/16 07:28:23;;;;;;;8.05;2.65;;;13.10;99.90;;;;;;6248122;22;20016;-80
2022/10/16 07:30:51;;;;;;;7.53;2.65;;;13.10;99.90;;;;;;6275320;22;20043;-80
2022/10/16 07:33:17;;;;;;;9.48;2.80;;;13.20;99.90;;;;;;6246423;22;20065;-80
2022/10/16 07:35:51;;;;;;;8.40;2.90;;;13.20;99.90;;;;;;6248034;22;20023;-80
2022/10/16 07:38:16;;;;;;;;;;;13.80;99.90;;;;;;6247520;22;20091;-80
2022/10/16 07:40:42;;;;;;;9.00;2.80;;;13.20;99.90;;;;;;6275172;22;19998;-80
2022/10/16 07:43:08;;;;;;;8.85;3.10;;;13.30;99.90;;;;;;6247800;22;20125;-81
2022/10/16 07:45:33;;;;;;;9.43;3.28;;;13.30;99.90;;;;;;6274738;22;20008;-80
2022/10/16 07:47:59;;;;;;;9.48;3.13;;;13.40;99.90;;;;;;6248561;22;20020;-81
2022/10/16 07:50:24;;;;;;;8.02;3.13;;;13.60;99.90;;;;;;6274781;22;20343;-81
2022/10/16 07:52:50;;;;;;;8.35;2.80;;;13.60;99.90;;;;;;6274267;22;20016;-80
2022/10/16 07:55:16;;;;;;;9.95;3.25;;;13.60;99.90;;;;;;6274697;22;20123;-80
2022/10/16 07:57:41;;;;;;;10.23;4.00;;;13.60;99.90;;;;;;6248129;22;20113;-80
2022/10/16 08:00:13;;;;;;;10.98;6.15;;;13.60;99.90;;;;;;6274290;22;20031;-80
2022/10/16 08:02:41;;;;;;;13.52;6.35;;;13.60;99.90;;;;;;6248355;22;20383;-80
2022/10/16 08:05:07;;;;;;;9.32;3.00;;;13.70;99.90;;;;;;6247755;22;20019;-80
2022/10/16 08:07:33;;;;;;;28.48;15.18;;;13.60;99.90;;;;;;6247281;22;20023;-80
2022/10/16 08:09:58;;;;;;;9.63;2.60;;;13.70;99.90;;;;;;6247909;22;20019;-80
2022/10/16 08:12:27;;;;;;;8.18;2.40;;;13.60;99.90;;;;;;6274823;22;20090;-80
2022/10/16 08:14:56;;;;;;;7.13;2.60;;;13.60;99.90;;;;;;6274581;22;20031;-80
2022/10/16 08:17:21;;;;;;;8.45;3.10;;;13.70;99.90;;;;;;6274246;22;20047;-80
2022/10/16 08:19:47;;;;;;;10.65;4.20;;;13.70;99.90;;;;;;6273572;22;20494;-80
2022/10/16 08:22:16;;;;;;;10.73;3.65;;;13.70;99.90;;;;;;6245068;22;20065;-81
2022/10/16 08:24:42;;;;;;;10.80;3.20;;;13.90;99.90;;;;;;6274624;22;20023;-81
2022/10/16 08:27:08;;;;;;;8.38;2.60;;;13.80;99.90;;;;;;6274877;22;20018;-81
2022/10/16 08:29:34;;;;;;;9.15;3.85;;;13.90;99.90;;;;;;6249127;22;20019;-81
2022/10/16 08:32:00;;;;;;;7.65;2.80;;;13.90;99.90;;;;;;6250254;22;20426;-81
2022/10/16 08:34:25;;;;;;;8.73;2.85;;;14.70;99.90;;;;;;6276429;22;20018;-80
2022/10/16 08:36:54;;;;;;;10.30;2.65;;;15.00;99.90;;;;;;6277754;22;20020;-81
2022/10/16 08:39:19;;;;;;;14.10;4.55;;;14.00;99.90;;;;;;6250069;22;20011;-81
2022/10/16 08:42:24;;;;;;;10.32;3.40;;;14.10;99.90;;;;;;6249130;22;20012;-81
2022/10/16 08:45:19;;;;;;;18.48;12.10;;;14.10;99.90;;;;;;6250355;22;20078;-81
2022/10/16 08:48:12;;;;;;;8.23;2.65;;;14.80;99.90;;;;;;6250254;22;20034;-81
2022/10/16 08:50:39;;;;;;;25.02;21.17;;;14.50;99.90;;;;;;6184641;22;20023;-81
2022/10/16 08:53:06;;;;;;;13.40;5.95;;;14.30;99.90;;;;;;6250752;22;20070;-82
2022/10/16 08:55:41;;;;;;;22.30;16.33;;;14.40;99.90;;;;;;6274873;22;20028;-79
2022/10/16 08:58:18;;;;;;;10.05;3.13;;;14.60;99.90;;;;;;6249783;22;20448;-82
2022/10/16 09:00:48;;;;;;;11.65;4.72;;;15.40;99.90;;;;;;6275990;22;20352;-82
2022/10/16 09:03:17;;;;;;;10.02;3.00;;;14.70;99.90;;;;;;6274694;22;20018;-82
2022/10/16 09:06:24;;;;;;;10.52;3.03;;;15.10;99.90;;;;;;6276094;22;20467;-83
2022/10/16 09:09:37;;;;;;;9.05;3.70;;;14.60;99.90;;;;;;6249351;22;20016;-83
2022/10/16 09:12:11;;;;;;;9.93;3.22;;;14.60;99.90;;;;;;6122970;23;20022;-80
2022/10/16 09:15:03;;;;;;;10.18;4.20;;;14.60;99.90;;;;;;6239860;22;20402;-80
2022/10/16 09:17:35;;;;;;;10.45;4.05;;;14.70;99.90;;;;;;6274911;22;20376;-82
2022/10/16 09:20:10;;;;;;;21.88;15.43;;;15.10;99.90;;;;;;6249327;22;20012;-82
2022/10/16 09:22:36;;;;;;;12.25;5.68;;;14.60;99.90;;;;;;6275624;22;20094;-81
2022/10/16 09:25:14;;;;;;;11.77;3.05;;;15.40;99.90;;;;;;6248278;22;20055;-81
2022/10/16 09:27:40;;;;;;;9.77;3.60;;;14.70;99.90;;;;;;6249496;22;20499;-80
2022/10/16 09:30:13;;;;;;;29.10;17.63;;;15.30;99.90;;;;;;6276845;22;20047;-81
2022/10/16 09:32:41;;;;;;;9.93;3.05;;;14.80;99.90;;;;;;6275783;22;20057;-81
2022/10/16 09:35:16;;;;;;;13.95;6.38;;;14.90;99.90;;;;;;6245949;22;20452;-80
2022/10/16 09:37:44;;;;;;;12.00;3.03;;;15.60;99.90;;;;;;6248146;22;20141;-80
2022/10/16 09:40:31;;;;;;;10.93;4.97;;;15.10;99.90;;;;;;6247399;22;20077;-80
2022/10/16 09:43:15;;;;;;;16.88;6.43;;;15.10;99.90;;;;;;6249021;22;20012;-80
2022/10/16 09:45:41;;;;;;;17.95;7.88;;;15.20;99.90;;;;;;6274961;22;20020;-80
2022/10/16 09:48:18;;;;;;;35.05;7.25;;;15.20;99.90;;;;;;6248440;22;20007;-81
2022/10/16 09:50:54;;;;;;;8.70;1.85;;;15.40;99.90;;;;;;6275999;22;20431;-81
2022/10/16 09:53:22;;;;;;;9.13;3.05;;;15.50;99.90;;;;;;6275261;22;20085;-81
2022/10/16 09:55:52;;;;;;;14.18;5.35;;;15.50;99.90;;;;;;6275790;22;20018;-81
2022/10/16 09:58:21;;;;;;;10.32;2.50;;;16.40;99.90;;;;;;6272381;22;20071;-81
2022/10/16 10:00:53;;;;;;;7.57;1.90;;;15.60;99.90;;;;;;6247711;22;20016;-81
2022/10/16 10:03:48;;;;;;;8.80;2.10;;;15.90;99.90;;;;;;6271187;22;20059;-81
2022/10/16 10:06:26;;;;;;;10.20;2.38;;;15.70;99.90;;;;;;6245341;22;20020;-81
2022/10/16 10:09:06;;;;;;;8.48;2.00;;;15.80;99.90;;;;;;6246361;22;20316;-81
2022/10/16 10:11:54;;;;;;;12.93;2.38;;;15.90;99.90;;;;;;6246583;22;20432;-82
2022/10/16 10:14:43;;;;;;;8.68;2.13;;;16.10;99.90;;;;;;6274417;22;20015;-81
2022/10/16 10:17:12;;;;;;;8.25;2.20;;;16.30;99.90;;;;;;6274965;22;20081;-81
2022/10/16 10:20:02;;;;;;;11.15;2.00;;;16.30;99.90;;;;;;6275597;22;20011;-80
2022/10/16 10:22:42;;;;;;;9.10;2.03;;;17.00;99.90;;;;;;6274245;22;20008;-81
2022/10/16 10:25:13;;;;;;;10.38;2.50;;;16.50;99.90;;;;;;6247523;22;20050;-81
2022/10/16 10:28:03;;;;;;;11.13;2.10;;;16.40;99.90;;;;;;6246156;22;20015;-82
2022/10/16 10:30:58;;;;;;;8.05;1.90;;;16.40;99.90;;;;;;6247050;22;20444;-81
2022/10/16 10:34:05;;;;;;;9.13;1.90;;;16.50;99.90;;;;;;6266403;22;20054;-81
2022/10/16 10:36:37;;;;;;;9.52;2.20;;;16.50;99.90;;;;;;6097258;23;20446;-81
2022/10/16 10:39:31;;;;;;;10.55;1.92;;;16.90;99.90;;;;;;6223176;22;20030;-81
2022/10/16 10:42:11;;;;;;;14.13;2.40;;;16.70;99.90;;;;;;6245840;22;20154;-81
2022/10/16 10:44:54;;;;;;;9.93;2.03;;;17.00;99.90;;;;;;6247611;22;20015;-82
2022/10/16 10:47:26;;;;;;;10.35;1.92;;;16.90;99.90;;;;;;6247401;22;20028;-81
2022/10/16 10:50:25;;;;;;;11.25;2.33;;;17.00;99.90;;;;;;6246881;22;20023;-82
2022/10/16 10:53:07;;;;;;;8.27;2.00;;;17.00;99.90;;;;;;6247164;22;20027;-81
2022/10/16 10:56:07;;;;;;;7.97;2.10;;;17.40;99.90;;;;;;6246876;22;20020;-82
2022/10/16 10:59:28;;;;;;;9.80;2.00;;;17.70;99.90;;;;;;6248841;22;20024;-82
2022/10/16 11:02:04;;;;;;;10.30;2.20;;;17.30;99.90;;;;;;6166404;22;20019;-83
2022/10/16 11:04:58;;;;;;;10.02;2.40;;;17.50;99.90;;;;;;6248863;22;20019;-82
2022/10/16 11:07:29;;;;;;;12.43;3.10;;;17.40;99.90;;;;;;6276065;22;20091;-82
2022/10/16 11:10:24;;;;;;;17.00;5.72;;;17.40;99.90;;;;;;6248180;22;20057;-82
2022/10/16 11:12:54;;;;;;;;;;;17.20;99.90;;;;;;6271433;22;20020;-82
2022/10/16 11:15:34;;;;;;;15.57;5.55;;;17.20;99.90;;;;;;6248381;22;19915;-82
2022/10/16 11:18:19;;;;;;;14.02;3.92;;;17.20;99.90;;;;;;6274808;22;20048;-81
2022/10/16 11:20:53;;;;;;;12.63;4.65;;;17.60;99.90;;;;;;6276394;22;20019;-81
2022/10/16 11:23:42;;;;;;;12.18;3.90;;;17.30;99.90;;;;;;6274608;22;20019;-81
2022/10/16 11:26:23;;;;;;;14.75;5.82;;;17.50;99.90;;;;;;6275811;22;20023;-80
2022/10/16 11:28:55;;;;;;;12.52;2.90;;;17.60;99.90;;;;;;6248390;22;20340;-81
2022/10/16 11:31:29;;;;;;;14.68;4.82;;;17.90;99.90;;;;;;6275231;22;20043;-81
2022/10/16 11:34:15;;;;;;;17.27;6.15;;;18.00;99.90;;;;;;6248803;22;20317;-80
2022/10/16 11:36:47;;;;;;;24.13;8.70;;;18.00;99.90;;;;;;6248857;22;20016;-80
2022/10/16 11:39:28;;;;;;;18.23;7.90;;;18.00;99.90;;;;;;6247910;22;20008;-85
2022/10/16 11:41:56;;;;;;;14.50;4.78;;;17.70;99.90;;;;;;6248615;22;20066;-80
2022/10/16 11:44:53;;;;;;;14.80;6.57;;;17.80;99.90;;;;;;6274424;22;20443;-80
2022/10/16 11:47:40;;;;;;;19.60;8.68;;;17.70;99.90;;;;;;6248378;22;20019;-80
2022/10/16 11:50:40;;;;;;;16.67;6.60;;;17.20;99.90;;;;;;6248371;22;20016;-80
2022/10/16 11:53:43;;;;;;;16.77;6.95;;;17.10;99.90;;;;;;6247578;22;20317;-81
2022/10/16 11:56:16;;;;;;;18.02;7.80;;;16.80;99.90;;;;;;6275360;22;20042;-80
2022/10/16 11:59:05;;;;;;;11.82;3.58;;;16.70;99.90;;;;;;6247988;22;20015;-81
2022/10/16 12:01:52;;;;;;;11.60;3.40;;;16.60;99.90;;;;;;6248340;22;20042;-80
2022/10/16 12:04:45;;;;;;;10.20;2.65;;;16.70;99.90;;;;;;6276318;22;20325;-80
2022/10/16 12:07:36;;;;;;;28.27;12.43;;;17.00;99.90;;;;;;6257135;22;20399;-81
2022/10/16 12:10:24;;;;;;;18.10;7.75;;;18.10;99.90;;;;;;6230340;22;20089;-81
2022/10/16 12:12:50;;;;;;;33.50;16.63;;;17.40;99.90;;;;;;6249563;22;20821;-81
2022/10/16 12:15:22;;;;;;;15.82;4.50;;;18.00;99.90;;;;;;6249933;22;20023;-81
2022/10/16 12:17:48;;;;;;;12.02;3.72;;;17.90;99.90;;;;;;6250376;22;20022;-82
2022/10/16 12:20:16;;;;;;;17.90;8.43;;;18.00;99.90;;;;;;6248727;22;20012;-81
2022/10/16 12:22:47;;;;;;;14.50;3.78;;;18.20;99.90;;;;;;6272978;22;20011;-80
2022/10/16 12:25:48;;;;;;;16.25;6.85;;;18.40;99.90;;;;;;6245814;22;20026;-80
2022/10/16 12:28:28;;;;;;;10.25;2.45;;;18.40;99.90;;;;;;6248115;22;20043;-83
2022/10/16 12:30:57;;;;;;;8.68;3.35;;;18.10;99.90;;;;;;6250157;22;20015;-80
2022/10/16 12:33:35;;;;;;;17.20;5.32;;;18.40;99.90;;;;;;6276611;22;20012;-80
2022/10/16 12:36:41;;;;;;;13.73;5.28;;;18.70;99.90;;;;;;6276943;22;20506;-82
2022/10/16 12:39:21;;;;;;;13.70;4.45;;;18.40;99.90;;;;;;6240679;22;20015;-83
2022/10/16 12:42:00;;;;;;;11.20;2.92;;;18.70;99.90;;;;;;6249524;22;20058;-90
2022/10/16 12:44:31;;;;;;;15.07;5.38;;;18.90;99.90;;;;;;6277597;22;20024;-85
2022/10/16 12:46:56;;;;;;;12.00;3.92;;;18.60;99.90;;;;;;6277531;22;20014;-84
2022/10/16 12:49:28;;;;;;;9.80;2.38;;;18.70;99.90;;;;;;6248995;22;20044;-85
2022/10/16 12:51:54;;;;;;;11.00;3.75;;;19.30;99.90;;;;;;6250177;22;20008;-84
2022/10/16 12:54:25;;;;;;;13.07;3.40;;;19.40;99.90;;;;;;6277225;22;20034;-84
2022/10/16 12:56:54;;;;;;;22.13;5.00;;;19.00;99.90;;;;;;6276700;22;20020;-86
2022/10/16 12:59:37;;;;;;;10.38;3.88;;;19.50;99.90;;;;;;6249680;22;20093;-84
2022/10/16 13:02:06;;;;;;;;;;;18.90;99.90;;;;;;6249397;22;20026;-84
2022/10/16 13:04:53;;;;;;;9.43;2.00;;;18.80;99.90;;;;;;6250289;22;20033;-84
2022/10/16 13:07:41;;;;;;;15.35;3.40;;;18.80;99.90;;;;;;6249817;22;20011;-84
2022/10/16 13:10:28;;;;;;;10.50;3.00;;;18.80;99.90;;;;;;6276539;22;20016;-84
2022/10/16 13:13:35;;;;;;;14.30;2.55;;;19.20;99.90;;;;;;6249858;22;20023;-84